createdAt,value
2022-09-24T00:01:41.955Z,11.29
2022-09-24T00:04:11.850Z,11.17
2022-09-24T00:06:42.009Z,11.20
2022-09-24T00:09:10.303Z,11.09
2022-09-24T00:11:38.906Z,11.12
2022-09-24T00:14:08.769Z,10.99
2022-09-24T00:16:36.712Z,11.00
2022-09-24T00:19:05.186Z,11.08
2022-09-24T00:21:34.735Z,11.09
2022-09-24T00:24:03.596Z,11.13
2022-09-24T00:26:48.711Z,11.14
2022-09-24T00:29:19.765Z,11.00
2022-09-24T00:31:47.907Z,11.00
2022-09-24T00:34:15.898Z,10.93
2022-09-24T00:36:44.899Z,10.90
2022-09-24T00:39:12.508Z,10.93
2022-09-24T00:41:47.277Z,10.84
2022-09-24T00:44:46.615Z,10.91
2022-09-24T00:47:15.712Z,10.81
2022-09-24T00:49:43.621Z,10.84
2022-09-24T00:52:11.285Z,11.00
2022-09-24T00:54:39.494Z,10.94
2022-09-24T00:57:07.353Z,10.98
2022-09-24T00:59:36.709Z,10.96
2022-09-24T01:02:06.575Z,10.95
2022-09-24T01:04:34.235Z,10.92
2022-09-24T01:07:02.343Z,10.87
2022-09-24T01:09:30.129Z,10.77
2022-09-24T01:12:04.229Z,10.81
2022-09-24T01:14:41.259Z,10.79
2022-09-24T01:17:19.020Z,10.85
2022-09-24T01:20:12.132Z,10.84
2022-09-24T01:22:50.693Z,10.78
2022-09-24T01:25:21.202Z,10.72
2022-09-24T01:28:04.783Z,10.80
2022-09-24T01:30:42.349Z,10.73
2022-09-24T01:33:13.690Z,10.68
2022-09-24T01:35:44.010Z,10.61
2022-09-24T01:38:15.479Z,10.44
2022-09-24T01:40:43.573Z,10.04
2022-09-24T01:43:13.012Z,9.95
2022-09-24T01:45:42.731Z,9.73
2022-09-24T01:48:11.252Z,9.84
2022-09-24T01:50:41.917Z,9.81
2022-09-24T01:53:12.519Z,9.80
2022-09-24T01:55:44.900Z,9.85
2022-09-24T01:58:16.819Z,9.60
2022-09-24T02:00:48.862Z,9.38
2022-09-24T02:03:18.453Z,9.41
2022-09-24T02:05:50.443Z,9.38
2022-09-24T02:08:20.303Z,9.16
2022-09-24T02:10:54.876Z,9.09
2022-09-24T02:13:24.625Z,9.07
2022-09-24T02:15:56.579Z,8.98
2022-09-24T02:18:28.660Z,9.09
2022-09-24T02:20:56.535Z,9.07
2022-09-24T02:23:24.429Z,9.10
2022-09-24T02:25:55.262Z,9.07
2022-09-24T02:28:22.977Z,9.11
2022-09-24T02:30:55.027Z,9.17
2022-09-24T02:33:41.452Z,9.14
2022-09-24T02:36:09.046Z,9.16
2022-09-24T02:38:37.096Z,9.16
2022-09-24T02:41:08.117Z,8.98
2022-09-24T02:43:36.388Z,8.94
2022-09-24T02:46:05.537Z,8.96
2022-09-24T02:48:33.126Z,9.05
2022-09-24T02:51:01.270Z,9.10
2022-09-24T02:53:28.802Z,9.01
2022-09-24T02:55:56.450Z,9.02
2022-09-24T02:58:25.218Z,9.02
2022-09-24T03:00:53.686Z,9.06
2022-09-24T03:03:22.975Z,9.20
2022-09-24T03:05:53.173Z,8.94
2022-09-24T03:08:20.983Z,8.92
2022-09-24T03:10:49.462Z,8.95
2022-09-24T03:13:17.997Z,8.99
2022-09-24T03:15:46.329Z,8.97
2022-09-24T03:18:14.668Z,8.78
2022-09-24T03:20:43.663Z,8.66
2022-09-24T03:23:11.253Z,8.59
2022-09-24T03:25:38.856Z,8.55
2022-09-24T03:28:06.467Z,8.63
2022-09-24T03:30:51.581Z,8.68
2022-09-24T03:33:19.146Z,8.73
2022-09-24T03:35:48.058Z,8.75
2022-09-24T03:38:15.689Z,8.75
2022-09-24T03:40:43.327Z,8.67
2022-09-24T03:43:10.952Z,8.63
2022-09-24T03:45:38.683Z,8.73
2022-09-24T03:48:06.543Z,8.65
2022-09-24T03:50:37.106Z,8.55
2022-09-24T03:53:06.176Z,8.64
2022-09-24T03:55:33.801Z,8.71
2022-09-24T03:58:01.457Z,8.89
2022-09-24T04:00:29.106Z,8.86
2022-09-24T04:02:56.700Z,8.94
2022-09-24T04:05:27.171Z,8.94
2022-09-24T04:07:54.751Z,8.98
2022-09-24T04:10:25.516Z,8.87
2022-09-24T04:12:53.455Z,9.01
2022-09-24T04:15:21.901Z,8.92
2022-09-24T04:17:52.062Z,8.90
2022-09-24T04:20:22.753Z,8.91
2022-09-24T04:22:50.766Z,8.91
2022-09-24T04:25:18.809Z,8.95
2022-09-24T04:27:47.935Z,9.00
2022-09-24T04:30:16.140Z,8.99
2022-09-24T04:32:43.828Z,8.89
2022-09-24T04:35:11.618Z,8.82
2022-09-24T04:37:39.241Z,8.77
2022-09-24T04:40:12.535Z,8.85
2022-09-24T04:42:40.625Z,8.83
2022-09-24T04:45:11.659Z,8.80
2022-09-24T04:47:40.779Z,8.81
2022-09-24T04:50:11.307Z,8.69
2022-09-24T04:52:38.984Z,8.61
2022-09-24T04:55:07.880Z,8.61
2022-09-24T04:57:36.334Z,8.53
2022-09-24T05:00:05.898Z,8.58
2022-09-24T05:02:35.060Z,8.60
2022-09-24T05:05:03.241Z,8.49
2022-09-24T05:07:30.796Z,8.64
2022-09-24T05:09:58.352Z,8.45
2022-09-24T05:12:25.906Z,8.50
2022-09-24T05:14:53.478Z,8.54
2022-09-24T05:17:21.463Z,8.58
2022-09-24T05:19:50.430Z,8.68
2022-09-24T05:22:18.105Z,8.55
2022-09-24T05:24:45.773Z,8.65
2022-09-24T05:27:12.381Z,8.76
2022-09-24T05:29:40.747Z,8.90
2022-09-24T05:32:09.701Z,8.84
2022-09-24T05:34:37.391Z,8.91
2022-09-24T05:37:06.741Z,8.86
2022-09-24T05:39:34.532Z,8.88
2022-09-24T05:42:04.141Z,9.05
2022-09-24T05:44:31.815Z,8.95
2022-09-24T05:46:59.745Z,8.95
2022-09-24T05:49:27.460Z,9.04
2022-09-24T05:51:55.068Z,9.08
2022-09-24T05:54:24.125Z,9.10
2022-09-24T05:56:51.647Z,9.25
2022-09-24T05:59:19.212Z,9.28
2022-09-24T06:01:46.789Z,9.32
2022-09-24T06:04:14.679Z,9.25
2022-09-24T06:06:43.415Z,9.24
2022-09-24T06:09:12.929Z,9.20
2022-09-24T06:11:42.514Z,9.23
2022-09-24T06:14:11.160Z,9.22
2022-09-24T06:16:38.763Z,9.20
2022-09-24T06:19:06.427Z,9.23
2022-09-24T06:21:34.422Z,9.31
2022-09-24T06:24:03.191Z,9.24
2022-09-24T06:26:33.933Z,9.23
2022-09-24T06:29:05.236Z,9.32
2022-09-24T06:31:34.911Z,9.43
2022-09-24T06:34:04.165Z,9.38
2022-09-24T06:36:32.912Z,9.37
2022-09-24T06:39:00.489Z,9.46
2022-09-24T06:41:28.073Z,9.54
2022-09-24T06:43:56.391Z,9.53
2022-09-24T06:46:26.396Z,9.57
2022-09-24T06:48:55.629Z,9.74
2022-09-24T06:51:23.229Z,9.76
2022-09-24T06:53:52.000Z,9.81
2022-09-24T06:56:19.536Z,9.91
2022-09-24T06:58:47.427Z,9.94
2022-09-24T07:01:15.148Z,9.98
2022-09-24T07:03:44.126Z,10.11
2022-09-24T07:06:11.679Z,10.15
2022-09-24T07:08:39.322Z,10.22
2022-09-24T07:11:07.619Z,10.28
2022-09-24T07:13:35.149Z,10.38
2022-09-24T07:16:03.261Z,10.44
2022-09-24T07:18:30.907Z,10.42
2022-09-24T07:20:59.822Z,10.53
2022-09-24T07:23:27.785Z,10.46
2022-09-24T07:25:57.330Z,10.43
2022-09-24T07:28:24.862Z,10.50
2022-09-24T07:30:58.207Z,10.51
2022-09-24T07:33:25.779Z,10.55
2022-09-24T07:35:53.440Z,10.65
2022-09-24T07:38:22.518Z,10.63
2022-09-24T07:40:50.262Z,10.61
2022-09-24T07:43:17.908Z,10.51
2022-09-24T07:45:46.355Z,10.55
2022-09-24T07:48:15.617Z,10.65
2022-09-24T07:50:43.448Z,10.81
2022-09-24T07:53:11.910Z,11.00
2022-09-24T07:55:41.616Z,11.26
2022-09-24T07:58:10.105Z,11.39
2022-09-24T08:00:37.681Z,11.67
2022-09-24T08:03:05.555Z,11.96
2022-09-24T08:05:33.863Z,12.03
2022-09-24T08:08:01.668Z,11.94
2022-09-24T08:10:29.428Z,11.92
2022-09-24T08:13:02.306Z,11.58
2022-09-24T08:15:29.866Z,11.70
2022-09-24T08:18:01.870Z,11.79
2022-09-24T08:20:29.401Z,11.68
2022-09-24T08:23:02.081Z,11.63
2022-09-24T08:25:29.760Z,11.67
2022-09-24T08:28:02.453Z,11.73
2022-09-24T08:30:30.870Z,11.82
2022-09-24T08:32:58.669Z,12.03
2022-09-24T08:35:26.280Z,11.95
2022-09-24T08:37:54.594Z,11.90
2022-09-24T08:40:25.100Z,11.97
2022-09-24T08:42:56.726Z,12.18
2022-09-24T08:45:43.347Z,12.34
2022-09-24T08:48:14.733Z,12.32
2022-09-24T08:50:47.931Z,12.32
2022-09-24T08:53:19.725Z,12.45
2022-09-24T08:55:48.454Z,12.46
2022-09-24T08:58:29.821Z,12.53
2022-09-24T09:01:13.850Z,12.75
2022-09-24T09:03:45.702Z,12.89
2022-09-24T09:06:25.139Z,12.98
2022-09-24T09:09:11.833Z,13.16
2022-09-24T09:11:41.220Z,13.21
2022-09-24T09:14:12.495Z,13.24
2022-09-24T09:16:47.730Z,13.23
2022-09-24T09:19:17.105Z,13.10
2022-09-24T09:21:46.171Z,13.15
2022-09-24T09:24:18.591Z,13.45
2022-09-24T09:26:49.600Z,13.69
2022-09-24T09:29:17.603Z,13.73
2022-09-24T09:31:56.535Z,13.80
2022-09-24T09:34:38.375Z,13.88
2022-09-24T09:37:13.079Z,13.97
2022-09-24T09:39:46.561Z,13.99
2022-09-24T09:42:24.469Z,13.98
2022-09-24T09:44:52.715Z,14.21
2022-09-24T09:47:27.573Z,14.13
2022-09-24T09:49:57.840Z,14.20
2022-09-24T09:52:28.301Z,14.46
2022-09-24T09:54:56.017Z,14.48
2022-09-24T09:57:25.318Z,14.46
2022-09-24T09:59:54.630Z,14.48
2022-09-24T10:02:28.849Z,14.46
2022-09-24T10:04:57.500Z,14.34
2022-09-24T10:07:25.388Z,14.40
2022-09-24T10:10:02.168Z,14.38
2022-09-24T10:12:30.414Z,14.17
2022-09-24T10:15:00.416Z,14.34
2022-09-24T10:17:32.884Z,14.25
2022-09-24T10:20:02.759Z,14.28
2022-09-24T10:22:30.968Z,14.38
2022-09-24T10:25:00.806Z,14.45
2022-09-24T10:27:34.271Z,14.54
2022-09-24T10:30:20.283Z,14.90
2022-09-24T10:32:57.328Z,15.10
2022-09-24T10:35:28.121Z,15.38
2022-09-24T10:37:56.832Z,15.50
2022-09-24T10:40:28.274Z,15.57
2022-09-24T10:42:57.201Z,15.55
2022-09-24T10:45:32.953Z,15.50
2022-09-24T10:48:08.700Z,15.70
2022-09-24T10:50:44.084Z,15.71
2022-09-24T10:53:15.266Z,15.63
2022-09-24T10:55:49.767Z,15.74
2022-09-24T10:58:40.336Z,15.71
2022-09-24T11:01:15.783Z,15.67
2022-09-24T11:04:18.299Z,15.92
2022-09-24T11:06:57.116Z,15.94
2022-09-24T11:09:31.445Z,15.89
2022-09-24T11:12:05.363Z,15.99
2022-09-24T11:14:46.487Z,16.00
2022-09-24T11:17:30.026Z,16.04
2022-09-24T11:20:12.711Z,16.22
2022-09-24T11:22:50.686Z,16.33
2022-09-24T11:25:32.200Z,16.18
2022-09-24T11:28:14.230Z,16.22
2022-09-24T11:30:47.839Z,16.32
2022-09-24T11:33:26.822Z,16.46
2022-09-24T11:36:05.448Z,16.52
2022-09-24T11:38:45.519Z,16.48
2022-09-24T11:41:24.430Z,16.57
2022-09-24T11:44:11.354Z,16.83
2022-09-24T11:46:49.600Z,17.13
2022-09-24T11:49:29.686Z,17.38
2022-09-24T11:52:03.303Z,17.46
2022-09-24T11:54:34.759Z,17.28
2022-09-24T11:57:07.725Z,17.33
2022-09-24T11:59:39.896Z,17.51
2022-09-24T12:02:15.510Z,17.39
2022-09-24T12:04:52.068Z,17.09
2022-09-24T12:07:26.165Z,17.30
2022-09-24T12:09:59.390Z,17.31
2022-09-24T12:12:30.252Z,17.38
2022-09-24T12:15:02.783Z,17.49
2022-09-24T12:17:36.174Z,17.31
2022-09-24T12:20:08.236Z,17.10
2022-09-24T12:22:39.303Z,17.07
2022-09-24T12:25:12.511Z,17.28
2022-09-24T12:27:40.875Z,17.49
2022-09-24T12:30:38.956Z,17.53
2022-09-24T12:33:11.272Z,17.58
2022-09-24T12:35:48.339Z,17.60
2022-09-24T12:38:20.849Z,17.63
2022-09-24T12:41:24.011Z,17.61
2022-09-24T12:43:56.679Z,17.71
2022-09-24T12:46:27.879Z,17.66
2022-09-24T12:48:56.062Z,17.78
2022-09-24T12:51:24.474Z,17.83
2022-09-24T12:54:06.228Z,18.02
2022-09-24T12:56:34.923Z,17.86
2022-09-24T12:59:05.551Z,17.92
2022-09-24T13:01:35.754Z,18.19
2022-09-24T13:04:29.248Z,18.46
2022-09-24T13:06:57.355Z,18.34
2022-09-24T13:09:34.334Z,18.16
2022-09-24T13:12:20.018Z,18.05
2022-09-24T13:14:53.550Z,17.89
2022-09-24T13:17:21.708Z,17.87
2022-09-24T13:19:51.675Z,17.84
2022-09-24T13:22:23.446Z,17.84
2022-09-24T13:24:54.525Z,17.75
2022-09-24T13:27:25.460Z,17.79
2022-09-24T13:30:04.801Z,17.83
2022-09-24T13:32:35.560Z,17.63
2022-09-24T13:35:07.934Z,17.60
2022-09-24T13:37:37.718Z,17.55
2022-09-24T13:40:09.273Z,17.39
2022-09-24T13:42:41.024Z,17.38
2022-09-24T13:45:13.428Z,17.44
2022-09-24T13:47:45.340Z,17.37
2022-09-24T13:50:18.030Z,17.47
2022-09-24T13:52:47.401Z,17.39
2022-09-24T13:55:22.083Z,17.41
2022-09-24T13:57:50.582Z,17.47
2022-09-24T14:00:20.892Z,17.51
2022-09-24T14:02:58.732Z,17.73
2022-09-24T14:05:29.207Z,17.61
2022-09-24T14:08:00.029Z,17.67
2022-09-24T14:10:29.786Z,17.67
2022-09-24T14:13:10.541Z,17.76
2022-09-24T14:15:38.520Z,17.72
2022-09-24T14:18:10.673Z,17.74
2022-09-24T14:20:40.694Z,17.75
2022-09-24T14:23:11.084Z,17.78
2022-09-24T14:25:40.471Z,17.64
2022-09-24T14:28:08.353Z,17.70
2022-09-24T14:30:37.885Z,17.66
2022-09-24T14:33:08.667Z,17.74
2022-09-24T14:35:38.378Z,17.69
2022-09-24T14:38:09.511Z,17.65
2022-09-24T14:40:43.310Z,17.63
2022-09-24T14:43:17.901Z,17.66
2022-09-24T14:45:46.988Z,17.69
2022-09-24T14:48:24.990Z,17.65
2022-09-24T14:50:52.856Z,17.65
2022-09-24T14:53:23.702Z,17.71
2022-09-24T14:55:52.811Z,17.83
2022-09-24T14:58:24.997Z,17.89
2022-09-24T15:00:56.202Z,17.79
2022-09-24T15:03:28.483Z,17.90
2022-09-24T15:06:07.267Z,17.79
2022-09-24T15:08:35.620Z,17.74
2022-09-24T15:11:06.089Z,17.73
2022-09-24T15:13:35.586Z,17.77
2022-09-24T15:16:08.941Z,17.70
2022-09-24T15:18:36.797Z,17.68
2022-09-24T15:21:08.279Z,17.63
2022-09-24T15:23:36.656Z,17.74
2022-09-24T15:26:06.238Z,17.70
2022-09-24T15:28:34.135Z,17.67
2022-09-24T15:31:01.960Z,17.75
2022-09-24T15:33:29.809Z,17.73
2022-09-24T15:35:57.717Z,17.69
2022-09-24T15:38:25.722Z,17.67
2022-09-24T15:40:53.963Z,17.60
2022-09-24T15:43:24.971Z,17.52
2022-09-24T15:45:53.040Z,17.52
2022-09-24T15:48:20.932Z,17.46
2022-09-24T15:50:50.540Z,17.47
2022-09-24T15:53:21.778Z,17.37
2022-09-24T15:55:53.205Z,17.32
2022-09-24T15:58:21.645Z,17.35
2022-09-24T16:00:51.482Z,17.34
2022-09-24T16:03:21.750Z,17.29
2022-09-24T16:05:49.891Z,17.24
2022-09-24T16:08:17.912Z,17.12
2022-09-24T16:10:47.122Z,17.06
2022-09-24T16:13:16.021Z,17.06
2022-09-24T16:15:44.243Z,16.95
2022-09-24T16:18:15.785Z,16.94
2022-09-24T16:20:45.373Z,16.88
2022-09-24T16:23:15.589Z,16.86
2022-09-24T16:25:43.817Z,16.79
2022-09-24T16:28:11.683Z,16.82
2022-09-24T16:30:39.541Z,16.72
2022-09-24T16:33:07.302Z,16.71
2022-09-24T16:35:36.196Z,16.73
2022-09-24T16:38:03.904Z,16.55
2022-09-24T16:40:32.980Z,16.28
2022-09-24T16:43:00.615Z,16.17
2022-09-24T16:45:28.532Z,15.89
2022-09-24T16:47:56.294Z,15.74
2022-09-24T16:50:24.550Z,15.45
2022-09-24T16:52:55.442Z,15.32
2022-09-24T16:55:25.223Z,15.24
2022-09-24T16:57:53.183Z,15.05
2022-09-24T17:00:21.240Z,14.98
2022-09-24T17:02:49.263Z,14.77
2022-09-24T17:05:17.335Z,14.84
2022-09-24T17:07:45.152Z,14.80
2022-09-24T17:10:13.314Z,14.64
2022-09-24T17:12:41.939Z,14.62
2022-09-24T17:15:10.270Z,14.62
2022-09-24T17:17:49.161Z,14.46
2022-09-24T17:20:18.008Z,14.36
2022-09-24T17:22:47.430Z,14.25
2022-09-24T17:25:17.381Z,14.19
2022-09-24T17:27:45.226Z,14.06
2022-09-24T17:30:14.350Z,14.05
2022-09-24T17:32:43.190Z,14.09
2022-09-24T17:35:15.046Z,13.99
2022-09-24T17:37:43.004Z,13.85
2022-09-24T17:40:11.574Z,13.73
2022-09-24T17:42:45.878Z,13.74
2022-09-24T17:45:13.768Z,13.82
2022-09-24T17:48:10.608Z,13.66
2022-09-24T17:51:16.133Z,13.79
2022-09-24T17:54:35.770Z,13.56
2022-09-24T17:57:57.564Z,13.35
2022-09-24T18:01:25.377Z,13.31
2022-09-24T18:03:54.923Z,13.30
2022-09-24T18:06:25.566Z,13.20
2022-09-24T18:08:59.053Z,13.30
2022-09-24T18:11:29.684Z,13.30
2022-09-24T18:13:59.622Z,13.26
2022-09-24T18:16:29.854Z,13.34
2022-09-24T18:18:57.895Z,13.25
2022-09-24T18:21:25.619Z,13.33
2022-09-24T18:23:53.538Z,13.28
2022-09-24T18:26:22.667Z,13.39
2022-09-24T18:28:51.770Z,13.50
2022-09-24T18:31:21.058Z,13.62
2022-09-24T18:33:51.892Z,13.61
2022-09-24T18:36:21.991Z,13.49
2022-09-24T18:38:49.779Z,13.56
2022-09-24T18:41:20.310Z,13.50
2022-09-24T18:43:47.993Z,13.39
2022-09-24T18:46:17.218Z,13.37
2022-09-24T18:48:46.900Z,13.42
2022-09-24T18:51:18.701Z,13.37
2022-09-24T18:53:46.531Z,13.45
2022-09-24T18:56:14.079Z,13.46
2022-09-24T18:58:42.160Z,13.37
2022-09-24T19:01:10.270Z,13.39
2022-09-24T19:03:39.578Z,13.37
2022-09-24T19:06:08.196Z,13.48
2022-09-24T19:08:37.036Z,13.36
2022-09-24T19:11:07.608Z,13.38
2022-09-24T19:13:35.860Z,13.29
2022-09-24T19:16:07.673Z,13.34
2022-09-24T19:18:35.884Z,13.36
2022-09-24T19:21:06.375Z,13.26
2022-09-24T19:23:38.223Z,13.18
2022-09-24T19:26:06.197Z,13.20
2022-09-24T19:28:34.533Z,13.13
2022-09-24T19:31:02.476Z,13.19
2022-09-24T19:33:30.277Z,13.05
2022-09-24T19:36:01.734Z,13.07
2022-09-24T19:38:31.579Z,13.13
2022-09-24T19:41:03.042Z,13.10
2022-09-24T19:43:33.545Z,13.14
2022-09-24T19:46:03.437Z,13.15
2022-09-24T19:48:32.468Z,13.15
2022-09-24T19:51:00.719Z,13.11
2022-09-24T19:53:29.225Z,13.15
2022-09-24T19:55:57.263Z,13.13
2022-09-24T19:58:26.567Z,13.18
2022-09-24T20:00:54.721Z,13.16
2022-09-24T20:03:22.444Z,13.22
2022-09-24T20:05:49.988Z,13.15
2022-09-24T20:08:17.533Z,13.14
2022-09-24T20:10:45.915Z,13.17
2022-09-24T20:13:13.747Z,13.15
2022-09-24T20:15:42.979Z,13.10
2022-09-24T20:18:12.620Z,13.18
2022-09-24T20:20:40.770Z,13.12
2022-09-24T20:23:10.731Z,13.11
2022-09-24T20:25:56.131Z,13.16
2022-09-24T20:28:23.703Z,13.22
2022-09-24T20:30:53.859Z,13.16
2022-09-24T20:33:21.444Z,13.07
2022-09-24T20:35:50.233Z,13.03
2022-09-24T20:38:18.668Z,13.02
2022-09-24T20:40:46.275Z,13.01
2022-09-24T20:43:13.858Z,13.03
2022-09-24T20:45:42.160Z,13.07
2022-09-24T20:48:11.319Z,13.08
2022-09-24T20:50:38.979Z,13.19
2022-09-24T20:53:06.514Z,13.09
2022-09-24T20:55:34.098Z,13.08
2022-09-24T20:58:01.646Z,13.15
2022-09-24T21:00:35.115Z,13.11
2022-09-24T21:03:15.413Z,13.10
2022-09-24T21:05:53.428Z,13.03
2022-09-24T21:08:20.964Z,12.97
2022-09-24T21:10:48.502Z,12.94
2022-09-24T21:13:16.028Z,13.04
2022-09-24T21:15:43.637Z,13.01
2022-09-24T21:18:22.820Z,12.95
2022-09-24T21:20:53.120Z,12.99
2022-09-24T21:23:21.478Z,12.92
2022-09-24T21:25:54.376Z,12.88
2022-09-24T21:28:22.548Z,12.89
2022-09-24T21:30:57.774Z,12.86
2022-09-24T21:33:25.344Z,12.80
2022-09-24T21:35:59.000Z,12.72
2022-09-24T21:38:26.592Z,12.67
2022-09-24T21:40:54.573Z,12.61
2022-09-24T21:43:23.581Z,12.69
2022-09-24T21:45:52.361Z,12.58
2022-09-24T21:48:20.010Z,12.54
2022-09-24T21:50:47.790Z,12.60
2022-09-24T21:53:16.668Z,12.68
2022-09-24T21:55:48.033Z,12.68
2022-09-24T21:58:15.697Z,12.68
2022-09-24T22:00:43.832Z,12.64
2022-09-24T22:03:13.188Z,12.58
2022-09-24T22:05:42.854Z,12.62
2022-09-24T22:08:12.918Z,12.63
2022-09-24T22:10:44.001Z,12.56
2022-09-24T22:13:14.025Z,12.53
2022-09-24T22:15:43.659Z,12.61
2022-09-24T22:18:11.680Z,12.59
2022-09-24T22:20:42.618Z,12.43
2022-09-24T22:23:10.325Z,12.39
2022-09-24T22:25:38.031Z,12.31
2022-09-24T22:28:07.097Z,12.39
2022-09-24T22:30:34.662Z,12.59
2022-09-24T22:33:02.245Z,12.29
2022-09-24T22:35:47.483Z,12.33
2022-09-24T22:38:15.676Z,12.35
2022-09-24T22:40:43.572Z,12.40
2022-09-24T22:43:12.475Z,12.34
2022-09-24T22:45:40.261Z,12.35
2022-09-24T22:48:07.904Z,12.33
2022-09-24T22:50:35.436Z,12.26
2022-09-24T22:53:02.999Z,12.28
2022-09-24T22:55:30.633Z,12.24
2022-09-24T22:57:58.217Z,12.29
2022-09-24T23:00:27.101Z,12.32
2022-09-24T23:02:54.657Z,12.32
2022-09-24T23:05:22.272Z,12.29
2022-09-24T23:07:49.827Z,12.26
2022-09-24T23:10:17.570Z,12.28
2022-09-24T23:12:45.138Z,12.22
2022-09-24T23:15:12.675Z,12.23
2022-09-24T23:17:41.554Z,12.26
2022-09-24T23:20:10.247Z,12.20
2022-09-24T23:22:37.811Z,12.14
2022-09-24T23:25:06.098Z,12.12
2022-09-24T23:27:33.725Z,12.18
2022-09-24T23:30:01.430Z,12.23
2022-09-24T23:32:29.157Z,12.23
2022-09-24T23:34:58.155Z,12.29
2022-09-24T23:37:25.797Z,12.25
2022-09-24T23:39:53.397Z,12.22
2022-09-24T23:42:20.938Z,12.19
2022-09-24T23:44:49.326Z,12.17
2022-09-24T23:47:17.164Z,12.14
2022-09-24T23:49:44.686Z,12.13
2022-09-24T23:52:13.626Z,12.17
2022-09-24T23:54:41.198Z,12.20
2022-09-24T23:57:09.255Z,12.22
2022-09-24T23:59:36.864Z,12.10
